createdAt,value
2022-08-05T00:00:56.118Z,2.13
2022-08-05T00:03:45.488Z,2.17
2022-08-05T00:06:27.876Z,1.87
2022-08-05T00:08:57.301Z,2.17
2022-08-05T00:11:30.301Z,2.23
2022-08-05T00:13:58.896Z,2.10
2022-08-05T00:16:36.214Z,2.10
2022-08-05T00:19:06.822Z,2.00
2022-08-05T00:21:35.950Z,2.20
2022-08-05T00:24:10.119Z,2.20
2022-08-05T00:26:39.313Z,3.03
2022-08-05T00:29:18.613Z,2.80
2022-08-05T00:32:11.078Z,2.20
2022-08-05T00:34:43.376Z,2.10
2022-08-05T00:37:35.474Z,2.20
2022-08-05T00:40:28.476Z,2.07
2022-08-05T00:42:58.173Z,2.27
2022-08-05T00:45:38.801Z,2.10
2022-08-05T00:48:12.069Z,2.40
2022-08-05T00:50:44.167Z,2.30
2022-08-05T00:54:01.161Z,2.27
2022-08-05T00:56:05.657Z,2.60
2022-08-05T00:58:35.936Z,2.57
2022-08-05T01:01:08.631Z,1.97
2022-08-05T01:03:37.411Z,1.97
2022-08-05T01:06:14.070Z,2.30
2022-08-05T01:08:44.303Z,1.90
2022-08-05T01:11:22.504Z,2.10
2022-08-05T01:14:01.333Z,2.20
2022-08-05T01:16:35.198Z,1.70
2022-08-05T01:19:14.353Z,2.00
2022-08-05T01:22:24.594Z,2.53
2022-08-05T01:25:40.596Z,1.97
2022-08-05T01:28:18.039Z,1.80
2022-08-05T01:30:53.507Z,1.90
2022-08-05T01:33:35.348Z,2.00
2022-08-05T01:36:13.074Z,2.03
2022-08-05T01:38:48.491Z,2.23
2022-08-05T01:41:21.996Z,2.00
2022-08-05T01:43:53.905Z,2.20
2022-08-05T01:46:42.417Z,1.97
2022-08-05T01:49:23.933Z,2.10
2022-08-05T01:51:58.288Z,1.83
2022-08-05T01:54:29.898Z,1.83
2022-08-05T01:58:12.869Z,1.90
2022-08-05T01:59:52.041Z,1.80
2022-08-05T02:02:26.020Z,1.87
2022-08-05T02:04:59.373Z,2.17
2022-08-05T02:07:30.338Z,1.87
2022-08-05T02:09:58.814Z,1.60
2022-08-05T02:12:36.715Z,1.93
2022-08-05T02:15:12.345Z,1.87
2022-08-05T02:18:32.941Z,2.20
2022-08-05T02:20:47.009Z,1.70
2022-08-05T02:23:15.849Z,2.30
2022-08-05T02:25:49.943Z,2.33
2022-08-05T02:28:28.952Z,1.87
2022-08-05T02:31:04.396Z,2.00
2022-08-05T02:33:38.750Z,2.30
2022-08-05T02:36:13.476Z,2.00
2022-08-05T02:38:52.776Z,1.87
2022-08-05T02:41:28.871Z,2.20
2022-08-05T02:44:13.142Z,2.37
2022-08-05T02:46:58.827Z,1.90
2022-08-05T02:49:36.615Z,2.30
2022-08-05T02:52:09.099Z,1.80
2022-08-05T02:54:42.207Z,2.40
2022-08-05T02:58:19.949Z,1.90
2022-08-05T03:00:02.541Z,2.23
2022-08-05T03:02:38.232Z,2.30
2022-08-05T03:05:09.848Z,2.23
2022-08-05T03:08:00.849Z,2.70
2022-08-05T03:10:27.336Z,2.50
2022-08-05T03:12:55.364Z,2.43
2022-08-05T03:15:24.274Z,2.17
2022-08-05T03:17:55.880Z,2.43
2022-08-05T03:20:24.821Z,2.57
2022-08-05T03:22:57.306Z,2.50
2022-08-05T03:26:04.012Z,2.67
2022-08-05T03:28:18.428Z,2.70
2022-08-05T03:30:48.708Z,2.70
2022-08-05T03:33:19.090Z,3.13
2022-08-05T03:35:49.921Z,3.77
2022-08-05T03:38:23.924Z,3.73
2022-08-05T03:41:08.356Z,3.00
2022-08-05T03:44:09.203Z,3.60
2022-08-05T03:46:29.523Z,3.13
2022-08-05T03:48:59.748Z,3.50
2022-08-05T03:52:37.774Z,3.67
2022-08-05T03:55:50.017Z,4.03
2022-08-05T03:57:41.369Z,3.80
2022-08-05T04:00:12.757Z,4.00
2022-08-05T04:02:57.789Z,3.97
2022-08-05T04:05:33.243Z,4.03
2022-08-05T04:08:03.326Z,4.00
2022-08-05T04:10:38.101Z,4.13
2022-08-05T04:13:08.614Z,4.07
2022-08-05T04:15:36.831Z,3.87
2022-08-05T04:18:06.867Z,3.93
2022-08-05T04:20:36.977Z,3.90
2022-08-05T04:23:05.389Z,4.10
2022-08-05T04:25:57.956Z,4.73
2022-08-05T04:28:28.499Z,4.63
2022-08-05T04:31:00.980Z,4.93
2022-08-05T04:33:54.811Z,4.70
2022-08-05T04:36:45.325Z,4.67
2022-08-05T04:39:07.403Z,3.93
2022-08-05T04:41:37.301Z,5.63
2022-08-05T04:44:09.634Z,4.97
2022-08-05T04:46:38.816Z,5.57
2022-08-05T04:49:12.360Z,5.97
2022-08-05T04:51:44.550Z,4.90
2022-08-05T04:54:12.780Z,5.73
2022-08-05T04:56:40.782Z,4.77
2022-08-05T04:59:21.406Z,5.73
2022-08-05T05:02:35.688Z,5.50
2022-08-05T05:04:44.204Z,6.20
2022-08-05T05:07:18.431Z,5.53
2022-08-05T05:09:52.133Z,5.33
2022-08-05T05:12:22.149Z,5.97
2022-08-05T05:14:51.421Z,6.07
2022-08-05T05:17:23.929Z,5.47
2022-08-05T05:19:54.702Z,6.33
2022-08-05T05:22:26.012Z,6.70
2022-08-05T05:24:57.593Z,7.07
2022-08-05T05:27:41.762Z,7.27
2022-08-05T05:30:15.357Z,6.73
2022-08-05T05:32:56.568Z,6.80
2022-08-05T05:35:25.177Z,7.30
2022-08-05T05:37:59.726Z,6.57
2022-08-05T05:40:29.105Z,7.80
2022-08-05T05:42:58.593Z,6.33
2022-08-05T05:45:26.585Z,7.40
2022-08-05T05:48:06.886Z,7.30
2022-08-05T05:50:43.871Z,7.63
2022-08-05T05:53:20.762Z,7.27
2022-08-05T05:55:52.141Z,8.20
2022-08-05T05:58:31.666Z,8.10
2022-08-05T06:01:12.220Z,8.23
2022-08-05T06:04:01.395Z,8.83
2022-08-05T06:06:31.047Z,9.60
2022-08-05T06:09:03.204Z,9.30
2022-08-05T06:11:32.027Z,8.50
2022-08-05T06:14:00.600Z,9.30
2022-08-05T06:16:32.722Z,9.77
2022-08-05T06:19:06.003Z,10.00
2022-08-05T06:21:37.480Z,9.90
2022-08-05T06:24:11.911Z,8.83
2022-08-05T06:26:51.343Z,8.23
2022-08-05T06:29:24.979Z,8.43
2022-08-05T06:32:21.272Z,8.10
2022-08-05T06:34:57.198Z,7.27
2022-08-05T06:37:55.571Z,7.37
2022-08-05T06:40:18.286Z,7.50
2022-08-05T06:42:51.592Z,7.37
2022-08-05T06:46:04.236Z,6.90
2022-08-05T06:48:47.409Z,6.83
2022-08-05T06:50:58.106Z,6.50
2022-08-05T06:53:28.992Z,6.23
2022-08-05T06:55:59.081Z,7.20
2022-08-05T06:58:35.360Z,7.17
2022-08-05T07:01:05.864Z,6.47
2022-08-05T07:03:34.718Z,6.80
2022-08-05T07:06:06.101Z,6.97
2022-08-05T07:08:42.812Z,7.33
2022-08-05T07:11:15.344Z,6.83
2022-08-05T07:14:01.054Z,6.37
2022-08-05T07:18:01.907Z,6.10
2022-08-05T07:22:27.807Z,5.10
2022-08-05T07:24:58.128Z,5.07
2022-08-05T07:27:57.134Z,4.80
2022-08-05T07:30:24.299Z,4.80
2022-08-05T07:32:58.633Z,4.47
2022-08-05T07:36:04.848Z,4.20
2022-08-05T07:38:32.910Z,4.57
2022-08-05T07:41:16.889Z,3.90
2022-08-05T07:43:52.475Z,3.80
2022-08-05T07:46:25.080Z,4.20
2022-08-05T07:49:04.048Z,4.13
2022-08-05T07:51:48.787Z,4.17
2022-08-05T07:54:30.215Z,3.47
2022-08-05T07:57:16.904Z,4.20
2022-08-05T07:59:50.018Z,3.40
2022-08-05T08:02:18.403Z,3.93
2022-08-05T08:04:48.734Z,3.60
2022-08-05T08:07:22.662Z,3.50
2022-08-05T08:09:53.102Z,3.80
2022-08-05T08:12:35.103Z,4.33
2022-08-05T08:15:15.444Z,4.30
2022-08-05T08:17:49.778Z,5.20
2022-08-05T08:21:00.009Z,4.40
2022-08-05T08:23:11.815Z,4.77
2022-08-05T08:26:00.720Z,5.00
2022-08-05T08:28:36.083Z,5.10
2022-08-05T08:31:07.978Z,5.13
2022-08-05T08:33:37.928Z,5.10
2022-08-05T08:36:39.052Z,4.40
2022-08-05T08:38:57.465Z,4.80
2022-08-05T08:41:52.593Z,4.20
2022-08-05T08:45:18.095Z,5.33
2022-08-05T08:47:47.472Z,5.10
2022-08-05T08:50:05.992Z,5.43
2022-08-05T08:52:47.405Z,4.87
2022-08-05T08:55:32.071Z,5.13
2022-08-05T08:58:08.691Z,5.97
2022-08-05T09:00:37.651Z,5.00
2022-08-05T09:03:08.288Z,5.67
2022-08-05T09:05:38.684Z,4.30
2022-08-05T09:08:26.672Z,4.33
2022-08-05T09:10:55.779Z,4.40
2022-08-05T09:13:23.790Z,4.03
2022-08-05T09:15:53.652Z,4.37
2022-08-05T09:18:24.492Z,3.57
2022-08-05T09:20:52.555Z,3.60
2022-08-05T09:23:21.959Z,3.67
2022-08-05T09:26:01.374Z,3.23
2022-08-05T09:28:34.236Z,3.50
2022-08-05T09:31:43.899Z,2.97
2022-08-05T09:33:59.081Z,2.77
2022-08-05T09:36:54.223Z,3.03
2022-08-05T09:39:39.262Z,3.10
2022-08-05T09:42:13.635Z,2.93
2022-08-05T09:44:51.319Z,3.13
2022-08-05T09:47:21.399Z,3.03
2022-08-05T09:50:01.011Z,3.40
2022-08-05T09:52:33.625Z,3.37
2022-08-05T09:55:06.505Z,3.63
2022-08-05T09:57:54.723Z,4.10
2022-08-05T10:00:26.781Z,4.27
2022-08-05T10:02:58.023Z,4.20
2022-08-05T10:05:32.917Z,5.10
2022-08-05T10:08:35.057Z,4.33
2022-08-05T10:10:54.065Z,4.97
2022-08-05T10:13:43.985Z,3.90
2022-08-05T10:16:37.676Z,3.20
2022-08-05T10:19:11.838Z,3.07
2022-08-05T10:21:41.343Z,2.97
2022-08-05T10:24:13.350Z,2.67
2022-08-05T10:26:51.910Z,2.63
2022-08-05T10:29:24.007Z,2.57
2022-08-05T10:32:55.702Z,2.67
2022-08-05T10:35:00.938Z,2.30
2022-08-05T10:37:43.914Z,2.70
2022-08-05T10:40:27.710Z,2.50
2022-08-05T10:43:02.516Z,2.47
2022-08-05T10:45:42.198Z,2.23
2022-08-05T10:48:39.613Z,2.77
2022-08-05T10:51:23.187Z,2.40
2022-08-05T10:54:01.769Z,2.10
2022-08-05T10:56:46.052Z,2.37
2022-08-05T11:00:04.210Z,2.10
2022-08-05T11:02:34.774Z,1.93
2022-08-05T11:05:09.448Z,2.00
2022-08-05T11:08:02.680Z,1.90
2022-08-05T11:10:33.693Z,2.10
2022-08-05T11:13:01.839Z,2.10
2022-08-05T11:15:59.283Z,1.83
2022-08-05T11:18:34.074Z,1.97
2022-08-05T11:21:06.281Z,2.20
2022-08-05T11:24:05.352Z,2.07
2022-08-05T11:26:34.712Z,2.50
2022-08-05T11:29:13.357Z,2.20
2022-08-05T11:31:57.453Z,2.43
2022-08-05T11:34:50.963Z,2.10
2022-08-05T11:38:31.027Z,2.53
2022-08-05T11:41:34.349Z,2.40
2022-08-05T11:44:07.118Z,2.10
2022-08-05T11:47:09.361Z,2.60
2022-08-05T11:49:26.231Z,2.07
2022-08-05T11:51:54.468Z,2.20
2022-08-05T11:54:33.445Z,2.00
2022-08-05T11:57:08.796Z,1.80
2022-08-05T11:59:57.530Z,2.10
2022-08-05T12:02:31.659Z,1.77
2022-08-05T12:05:07.582Z,1.80
2022-08-05T12:08:08.028Z,1.70
2022-08-05T12:10:38.444Z,2.23
2022-08-05T12:13:28.020Z,1.90
2022-08-05T12:16:15.013Z,2.00
2022-08-05T12:18:52.739Z,1.70
2022-08-05T12:21:24.085Z,1.97
2022-08-05T12:24:00.085Z,1.70
2022-08-05T12:26:33.645Z,2.27
2022-08-05T12:29:03.422Z,2.00
2022-08-05T12:31:42.440Z,1.70
2022-08-05T12:34:21.232Z,2.03
2022-08-05T12:36:53.494Z,1.70
2022-08-05T12:39:21.853Z,1.93
2022-08-05T12:41:57.995Z,1.93
2022-08-05T12:44:33.229Z,1.40
2022-08-05T12:47:04.703Z,2.03
2022-08-05T12:50:03.088Z,1.73
2022-08-05T12:52:38.551Z,1.80
2022-08-05T12:55:25.315Z,2.03
2022-08-05T12:58:50.691Z,1.80
2022-08-05T13:02:02.521Z,1.90
2022-08-05T13:03:41.635Z,1.90
2022-08-05T13:06:13.743Z,1.70
2022-08-05T13:08:42.040Z,2.10
2022-08-05T13:11:57.933Z,1.63
2022-08-05T13:14:24.844Z,1.80
2022-08-05T13:17:04.046Z,1.77
2022-08-05T13:19:40.318Z,1.70
2022-08-05T13:22:28.010Z,1.50
2022-08-05T13:25:00.848Z,1.60
2022-08-05T13:27:37.773Z,1.90
2022-08-05T13:30:34.064Z,1.47
2022-08-05T13:33:00.851Z,1.50
2022-08-05T13:35:47.300Z,1.50
2022-08-05T13:38:28.120Z,1.43
2022-08-05T13:41:01.718Z,1.67
2022-08-05T13:43:43.588Z,4.30
2022-08-05T13:46:30.616Z,2.40
2022-08-05T13:49:11.727Z,2.20
2022-08-05T13:51:46.166Z,2.07
2022-08-05T13:54:16.110Z,1.70
2022-08-05T13:56:51.033Z,1.67
2022-08-05T13:59:23.733Z,2.23
2022-08-05T14:01:58.337Z,1.73
2022-08-05T14:04:49.858Z,1.67
2022-08-05T14:07:56.428Z,1.70
2022-08-05T14:10:10.652Z,1.60
2022-08-05T14:12:39.398Z,1.50
2022-08-05T14:16:05.475Z,1.40
2022-08-05T14:18:00.625Z,1.30
2022-08-05T14:20:29.642Z,1.38
2022-08-05T14:22:59.410Z,1.38
2022-08-05T14:25:28.098Z,1.50
2022-08-05T14:27:58.410Z,1.45
2022-08-05T14:30:27.796Z,1.65
2022-08-05T14:32:56.781Z,1.77
2022-08-05T14:35:37.290Z,1.50
2022-08-05T14:38:31.713Z,1.70
2022-08-05T14:41:06.761Z,1.67
2022-08-05T14:43:59.629Z,1.30
2022-08-05T14:46:23.475Z,1.60
2022-08-05T14:48:58.550Z,1.47
2022-08-05T14:51:31.043Z,1.67
2022-08-05T14:54:26.479Z,1.77
2022-08-05T14:56:48.888Z,1.60
2022-08-05T14:59:21.192Z,1.80
2022-08-05T15:01:49.853Z,1.80
2022-08-05T15:04:20.509Z,1.92
2022-08-05T15:06:49.028Z,1.73
2022-08-05T15:09:51.919Z,1.80
2022-08-05T15:12:11.624Z,1.80
2022-08-05T15:14:49.994Z,2.30
2022-08-05T15:17:47.201Z,1.40
2022-08-05T15:20:13.405Z,1.38
2022-08-05T15:22:46.516Z,1.63
2022-08-05T15:25:51.286Z,1.60
2022-08-05T15:28:13.345Z,1.50
2022-08-05T15:30:43.385Z,1.40
2022-08-05T15:33:11.625Z,1.30
2022-08-05T15:35:45.296Z,1.30
2022-08-05T15:38:35.374Z,1.58
2022-08-05T15:41:23.102Z,1.60
2022-08-05T15:43:51.890Z,1.30
2022-08-05T15:46:24.087Z,1.63
2022-08-05T15:49:01.365Z,1.57
2022-08-05T15:52:12.619Z,1.67
2022-08-05T15:54:37.286Z,1.60
2022-08-05T15:57:07.926Z,1.65
2022-08-05T15:59:36.482Z,1.40
2022-08-05T16:02:09.730Z,1.70
2022-08-05T16:04:42.638Z,1.98
2022-08-05T16:07:10.997Z,1.40
2022-08-05T16:09:41.507Z,1.10
2022-08-05T16:12:12.158Z,1.50
2022-08-05T16:14:40.158Z,0.90
2022-08-05T16:17:08.159Z,1.00
2022-08-05T16:20:04.715Z,1.10
2022-08-05T16:22:27.631Z,1.10
2022-08-05T16:25:08.193Z,1.05
2022-08-05T16:28:00.195Z,1.10
2022-08-05T16:30:29.162Z,0.85
2022-08-05T16:32:57.245Z,0.85
2022-08-05T16:35:27.748Z,1.00
2022-08-05T16:38:16.076Z,0.73
2022-08-05T16:40:52.146Z,0.93
2022-08-05T16:43:27.286Z,1.02
2022-08-05T16:46:06.939Z,0.90
2022-08-05T16:48:40.629Z,0.80
2022-08-05T16:51:09.009Z,0.70
2022-08-05T16:54:02.968Z,1.00
2022-08-05T16:56:27.446Z,0.80
2022-08-05T16:58:56.751Z,1.20
2022-08-05T17:01:25.000Z,1.10
2022-08-05T17:03:53.375Z,0.90
2022-08-05T17:06:24.765Z,1.08
2022-08-05T17:08:54.529Z,1.10
2022-08-05T17:11:25.284Z,0.90
2022-08-05T17:14:00.655Z,0.80
2022-08-05T17:16:37.180Z,1.45
2022-08-05T17:19:07.828Z,1.10
2022-08-05T17:21:39.448Z,0.85
2022-08-05T17:24:19.522Z,0.80
2022-08-05T17:26:58.699Z,0.93
2022-08-05T17:29:39.918Z,1.17
2022-08-05T17:32:17.069Z,0.90
2022-08-05T17:34:48.178Z,1.00
2022-08-05T17:37:41.201Z,0.95
2022-08-05T17:40:12.091Z,1.02
2022-08-05T17:42:50.911Z,0.82
2022-08-05T17:45:22.200Z,1.13
2022-08-05T17:47:55.330Z,1.10
2022-08-05T17:50:29.669Z,1.00
2022-08-05T17:53:00.700Z,1.00
2022-08-05T17:55:38.147Z,0.73
2022-08-05T17:58:10.878Z,1.00
2022-08-05T18:00:44.399Z,0.80
2022-08-05T18:06:11.029Z,0.80
2022-08-05T18:08:40.585Z,0.80
2022-08-05T18:11:23.153Z,0.85
2022-08-05T18:13:52.774Z,1.00
2022-08-05T18:16:20.808Z,1.00
2022-08-05T18:18:50.871Z,0.98
2022-08-05T18:21:20.048Z,1.00
2022-08-05T18:23:53.898Z,0.90
2022-08-05T18:26:21.894Z,0.82
2022-08-05T18:28:57.629Z,1.08
2022-08-05T18:31:26.052Z,0.82
2022-08-05T18:34:05.769Z,1.25
2022-08-05T18:36:36.680Z,0.85
2022-08-05T18:39:22.442Z,0.90
2022-08-05T18:42:02.200Z,0.60
2022-08-05T18:44:49.248Z,0.90
2022-08-05T18:47:26.856Z,1.00
2022-08-05T18:50:15.485Z,1.00
2022-08-05T18:52:51.153Z,0.90
2022-08-05T18:55:21.512Z,0.90
2022-08-05T18:57:53.976Z,0.90
2022-08-05T19:00:27.289Z,1.27
2022-08-05T19:02:57.437Z,0.70
2022-08-05T19:06:11.483Z,1.00
2022-08-05T19:08:30.750Z,0.70
2022-08-05T19:10:59.580Z,0.80
2022-08-05T19:13:35.936Z,0.90
2022-08-05T19:16:25.341Z,0.97
2022-08-05T19:18:56.439Z,0.80
2022-08-05T19:21:34.200Z,1.13
2022-08-05T19:24:08.976Z,1.03
2022-08-05T19:26:54.252Z,0.60
2022-08-05T19:29:22.927Z,0.70
2022-08-05T19:31:51.306Z,0.80
2022-08-05T19:34:19.382Z,0.80
2022-08-05T19:36:51.344Z,0.80
2022-08-05T19:39:21.659Z,0.70
2022-08-05T19:42:07.747Z,0.70
2022-08-05T19:44:44.938Z,1.53
2022-08-05T19:47:15.272Z,1.00
2022-08-05T19:49:45.102Z,1.03
2022-08-05T19:52:30.237Z,0.90
2022-08-05T19:55:06.837Z,1.00
2022-08-05T19:58:00.613Z,0.90
2022-08-05T20:00:24.555Z,0.80
2022-08-05T20:02:52.408Z,0.90
2022-08-05T20:05:24.606Z,0.90
2022-08-05T20:07:58.818Z,1.50
2022-08-05T20:10:27.172Z,1.80
2022-08-05T20:12:55.462Z,2.40
2022-08-05T20:15:51.887Z,1.80
2022-08-05T20:18:32.665Z,1.47
2022-08-05T20:21:00.275Z,1.50
2022-08-05T20:23:39.620Z,1.40
2022-08-05T20:26:21.529Z,1.20
2022-08-05T20:28:55.645Z,1.23
2022-08-05T20:31:36.818Z,1.23
2022-08-05T20:34:05.516Z,0.93
2022-08-05T20:36:36.590Z,1.00
2022-08-05T20:39:13.551Z,1.00
2022-08-05T20:41:45.450Z,0.90
2022-08-05T20:44:19.328Z,0.97
2022-08-05T20:46:59.068Z,1.00
2022-08-05T20:49:27.067Z,1.20
2022-08-05T20:51:55.518Z,0.83
2022-08-05T20:54:42.748Z,1.23
2022-08-05T20:57:42.243Z,1.00
2022-08-05T21:00:21.340Z,1.13
2022-08-05T21:02:57.875Z,0.80
2022-08-05T21:05:28.516Z,0.90
2022-08-05T21:08:14.511Z,1.10
2022-08-05T21:10:48.851Z,0.90
2022-08-05T21:13:37.847Z,1.00
2022-08-05T21:16:07.709Z,0.90
2022-08-05T21:18:37.314Z,1.03
2022-08-05T21:21:05.536Z,0.80
2022-08-05T21:23:37.255Z,1.20
2022-08-05T21:26:12.476Z,0.90
2022-08-05T21:28:47.990Z,1.07
2022-08-05T21:31:19.164Z,1.00
2022-08-05T21:33:49.383Z,1.17
2022-08-05T21:36:27.744Z,0.93
2022-08-05T21:39:05.642Z,1.00
2022-08-05T21:41:37.594Z,0.93
2022-08-05T21:44:05.838Z,0.97
2022-08-05T21:46:34.929Z,0.80
2022-08-05T21:49:07.388Z,0.97
2022-08-05T21:52:16.677Z,0.80
2022-08-05T21:54:27.813Z,1.07
2022-08-05T22:00:03.181Z,1.10
2022-08-05T22:02:34.767Z,0.70
2022-08-05T22:05:04.631Z,1.00
2022-08-05T22:07:39.889Z,1.10
2022-08-05T22:10:26.727Z,0.60
2022-08-05T22:12:57.852Z,1.00
2022-08-05T22:16:00.918Z,1.23
2022-08-05T22:18:15.764Z,1.20
2022-08-05T22:20:47.544Z,1.00
2022-08-05T22:24:00.976Z,1.00
2022-08-05T22:26:42.158Z,0.90
2022-08-05T22:29:26.704Z,0.80
2022-08-05T22:31:59.741Z,0.87
2022-08-05T22:34:31.257Z,0.90
2022-08-05T22:37:00.297Z,1.00
2022-08-05T22:39:32.997Z,0.90
2022-08-05T22:42:11.314Z,1.00
2022-08-05T22:44:53.670Z,1.03
2022-08-05T22:47:29.772Z,0.90
2022-08-05T22:50:21.749Z,1.00
2022-08-05T22:52:47.351Z,1.20
2022-08-05T22:55:18.692Z,0.97
2022-08-05T22:57:49.106Z,0.97
2022-08-05T23:00:20.703Z,0.90
2022-08-05T23:02:50.350Z,1.10
2022-08-05T23:05:19.052Z,1.47
2022-08-05T23:07:50.438Z,0.80
2022-08-05T23:10:19.515Z,0.90
2022-08-05T23:12:51.335Z,1.10
2022-08-05T23:15:29.142Z,0.93
2022-08-05T23:18:00.433Z,1.00
2022-08-05T23:20:29.727Z,0.80
2022-08-05T23:22:58.444Z,1.07
2022-08-05T23:25:52.859Z,1.30
2022-08-05T23:28:15.881Z,1.40
2022-08-05T23:30:53.751Z,1.00
2022-08-05T23:34:02.791Z,1.10
2022-08-05T23:36:10.911Z,0.97
2022-08-05T23:38:41.871Z,1.23
2022-08-05T23:41:10.865Z,1.00
2022-08-05T23:44:04.409Z,1.20
2022-08-05T23:46:28.020Z,1.23
2022-08-05T23:49:00.720Z,1.00
2022-08-05T23:51:53.663Z,1.20
2022-08-05T23:54:25.926Z,1.20
2022-08-05T23:57:03.856Z,0.97
